Time;durP1;ratioP1;P1;durP2;ratioP2;P2;SDS_P1;SDS_P2;PMS_P1;PMS_P2;Temp;Humidity;BMP_temperature;BMP_pressure;BME280_temperature;BME280_humidity;BME280_pressure;Samples;Min_cycle;Max_cycle;Signal;HPM_P1;HPM_P2
2022/03/05 00:02:02;;;;;;;28.70;13.00;;;;;;;1.49;52.98;99398.00;5180897;28;20056;-68
2022/03/05 00:04:52;;;;;;;29.27;12.55;;;;;;;1.39;53.79;99395.00;5178334;28;20444;-68
2022/03/05 00:07:42;;;;;;;28.77;12.50;;;;;;;1.69;52.55;99403.09;5181466;28;20054;-68
2022/03/05 00:10:33;;;;;;;27.95;12.77;;;;;;;1.54;52.18;99381.19;5171481;28;20116;-68
2022/03/05 00:13:23;;;;;;;31.70;13.57;;;;;;;1.63;52.06;99372.88;5176729;28;20061;-68
2022/03/05 00:16:13;;;;;;;26.98;11.63;;;;;;;1.52;52.49;99390.88;5162582;28;20516;-68
2022/03/05 00:19:04;;;;;;;27.92;12.45;;;;;;;1.90;51.74;99401.16;5180540;28;20104;-67
2022/03/05 00:21:57;;;;;;;25.85;11.85;;;;;;;1.76;51.41;99394.03;5169040;28;20065;-68
2022/03/05 00:24:47;;;;;;;28.02;12.52;;;;;;;1.73;52.12;99401.19;5181208;28;20052;-70
2022/03/05 00:27:40;;;;;;;27.33;11.68;;;;;;;1.90;51.72;99400.31;5176716;28;20127;-68
2022/03/05 00:30:31;;;;;;;31.88;13.05;;;;;;;1.77;52.04;99397.47;5183770;28;20066;-67
2022/03/05 00:33:21;;;;;;;30.38;12.27;;;;;;;1.45;52.51;99402.56;5177765;28;20052;-67
2022/03/05 00:36:11;;;;;;;30.50;12.68;;;;;;;1.62;52.33;99391.25;5176254;28;20089;-68
2022/03/05 00:39:01;;;;;;;35.53;12.93;;;;;;;1.75;52.21;99397.53;5177557;28;20054;-69
2022/03/05 00:41:51;;;;;;;33.33;13.32;;;;;;;1.67;53.05;99402.31;5180537;28;20681;-69
2022/03/05 00:44:41;;;;;;;29.20;12.30;;;;;;;1.74;52.40;99403.69;5180254;28;20065;-69
2022/03/05 00:47:37;;;;;;;35.33;13.63;;;;;;;1.79;51.74;99380.81;5184477;28;20076;-69
2022/03/05 00:50:28;;;;;;;30.25;12.90;;;;;;;1.62;53.23;99407.81;5177319;28;20428;-69
2022/03/05 00:53:18;;;;;;;33.75;13.38;;;;;;;1.27;53.74;99383.41;5179580;28;20507;-69
2022/03/05 00:56:08;;;;;;;32.33;13.02;;;;;;;1.04;53.68;99388.94;5180384;28;20444;-69
2022/03/05 00:58:59;;;;;;;30.95;13.27;;;;;;;0.89;54.41;99359.16;5180561;28;20176;-69
2022/03/05 01:01:49;;;;;;;38.72;12.98;;;;;;;1.32;53.80;99399.69;5173538;28;20053;-69
2022/03/05 01:04:40;;;;;;;25.08;11.75;;;;;;;1.58;53.77;99403.63;5181116;28;20058;-68
2022/03/05 01:07:31;;;;;;;31.40;13.25;;;;;;;1.56;53.89;99397.66;5179872;28;20057;-69
2022/03/05 01:10:21;;;;;;;27.67;12.63;;;;;;;1.41;53.54;99409.69;5166240;28;20062;-68
2022/03/05 01:13:12;;;;;;;30.45;13.73;;;;;;;1.45;53.87;99401.72;5180538;28;20582;-69
2022/03/05 01:16:02;;;;;;;29.50;11.95;;;;;;;1.72;52.89;99396.84;5173284;28;20140;-69
2022/03/05 01:18:52;;;;;;;30.23;13.18;;;;;;;1.81;52.79;99393.78;5178325;28;20053;-68
2022/03/05 01:21:43;;;;;;;30.77;12.60;;;;;;;1.59;52.95;99396.63;5167068;28;20050;-69
2022/03/05 01:24:33;;;;;;;29.30;12.88;;;;;;;1.19;54.25;99396.00;5182734;28;20188;-69
2022/03/05 01:27:23;;;;;;;27.08;13.15;;;;;;;1.20;54.72;99391.66;5178692;28;20053;-68
2022/03/05 01:30:13;;;;;;;29.42;12.80;;;;;;;1.16;54.29;99390.94;5175505;28;20688;-68
2022/03/05 01:33:04;;;;;;;33.50;12.95;;;;;;;1.26;54.04;99380.88;5180853;28;20050;-68
2022/03/05 01:35:54;;;;;;;31.45;13.13;;;;;;;1.46;53.74;99393.81;5179744;28;20046;-69
2022/03/05 01:38:44;;;;;;;27.98;12.90;;;;;;;0.99;55.24;99386.53;5179241;28;20057;-68
2022/03/05 01:41:34;;;;;;;29.73;12.30;;;;;;;1.18;54.57;99394.31;5177996;28;20105;-71
2022/03/05 01:44:24;;;;;;;28.05;13.02;;;;;;;1.31;54.75;99387.56;5175272;28;20068;-70
2022/03/05 01:47:15;;;;;;;33.30;13.27;;;;;;;1.35;54.03;99372.59;5180178;28;20057;-68
2022/03/05 01:50:05;;;;;;;35.83;13.13;;;;;;;1.25;54.28;99373.97;5178925;28;20046;-69
2022/03/05 01:52:56;;;;;;;32.40;12.73;;;;;;;1.30;54.71;99392.88;5181887;28;20423;-70
2022/03/05 01:55:47;;;;;;;30.55;13.35;;;;;;;1.47;53.61;99387.66;5182475;28;20046;-70
2022/03/05 01:58:37;;;;;;;30.05;12.38;;;;;;;1.59;52.91;99386.19;5178631;28;20060;-70
2022/03/05 02:01:28;;;;;;;32.50;13.23;;;;;;;1.49;53.68;99390.19;5179941;28;20054;-70
2022/03/05 02:04:19;;;;;;;28.70;12.70;;;;;;;1.50;54.06;99387.50;5179256;28;20054;-69
2022/03/05 02:07:09;;;;;;;30.80;12.15;;;;;;;1.12;54.34;99365.88;5180355;28;20136;-69
2022/03/05 02:10:00;;;;;;;29.85;12.45;;;;;;;0.88;54.89;99384.44;5177908;28;20518;-69
2022/03/05 02:12:50;;;;;;;32.63;13.40;;;;;;;0.61;55.24;99389.19;5173060;28;20069;-69
2022/03/05 02:15:39;;;;;;;29.42;13.52;;;;;;;0.81;55.42;99384.81;5172620;28;20061;-71
2022/03/05 02:18:29;;;;;;;32.33;13.15;;;;;;;0.54;55.54;99381.72;5173152;28;20133;-69
2022/03/05 02:21:20;;;;;;;28.85;11.93;;;;;;;0.22;56.08;99392.72;5178359;28;20037;-69
2022/03/05 02:24:10;;;;;;;26.80;11.77;;;;;;;0.05;56.44;99390.00;5175908;28;20200;-69
2022/03/05 02:27:02;;;;;;;31.33;12.75;;;;;;;0.07;54.33;99392.56;5179082;28;20152;-68
2022/03/05 02:29:52;;;;;;;26.55;11.73;;;;;;;-0.05;54.85;99396.56;5176272;28;20135;-70
2022/03/05 02:32:43;;;;;;;24.48;11.05;;;;;;;-0.12;54.78;99393.38;5176309;28;20057;-68
2022/03/05 02:35:33;;;;;;;28.25;11.88;;;;;;;-0.24;55.09;99389.53;5177648;28;20054;-70
2022/03/05 02:38:24;;;;;;;25.83;12.00;;;;;;;-0.26;55.30;99393.13;5175957;28;20076;-70
2022/03/05 02:41:14;;;;;;;33.08;12.57;;;;;;;-0.31;55.36;99395.91;5177636;28;20049;-68
2022/03/05 02:44:04;;;;;;;27.77;12.10;;;;;;;-0.38;54.67;99385.84;5174931;28;20053;-68
2022/03/05 02:46:58;;;;;;;31.90;12.90;;;;;;;-0.39;57.19;99391.97;5181798;28;20387;-70
2022/03/05 02:49:48;;;;;;;25.20;11.30;;;;;;;-0.50;56.04;99388.06;5187889;28;20824;-70
2022/03/05 02:52:39;;;;;;;25.90;11.95;;;;;;;-0.45;55.78;99394.81;5176995;28;20611;-69
2022/03/05 02:55:30;;;;;;;29.75;12.23;;;;;;;-0.44;57.42;99386.09;5179685;28;20518;-69
2022/03/05 02:58:20;;;;;;;36.05;12.80;;;;;;;-0.52;57.17;99397.69;5177018;28;20042;-71
2022/03/05 03:01:10;;;;;;;30.25;12.25;;;;;;;-0.55;58.21;99383.94;5180130;28;20068;-70
2022/03/05 03:04:00;;;;;;;29.08;12.27;;;;;;;-0.70;58.51;99390.63;5168163;28;20131;-70
2022/03/05 03:06:51;;;;;;;28.92;11.98;;;;;;;-0.87;58.39;99370.50;5178254;28;20065;-70
2022/03/05 03:09:42;;;;;;;33.72;13.50;;;;;;;-0.79;57.68;99394.47;5169173;28;20050;-70
2022/03/05 03:12:33;;;;;;;29.00;12.77;;;;;;;-0.83;56.63;99386.81;5176129;28;20053;-70
2022/03/05 03:15:23;;;;;;;29.42;12.50;;;;;;;-0.82;56.94;99396.34;5171037;28;20515;-69
2022/03/05 03:18:16;;;;;;;30.27;12.20;;;;;;;-0.90;57.76;99396.66;5168030;28;20057;-68
2022/03/05 03:21:06;;;;;;;31.45;12.25;;;;;;;-0.99;57.62;99407.44;5175066;28;20127;-68
2022/03/05 03:23:56;;;;;;;28.25;12.32;;;;;;;-1.08;57.68;99393.03;5178328;28;20558;-68
2022/03/05 03:26:46;;;;;;;26.00;12.65;;;;;;;-1.08;58.79;99397.41;5173800;28;20061;-68
2022/03/05 03:29:38;;;;;;;27.90;12.50;;;;;;;-1.17;57.57;99392.56;5177134;28;20176;-68
2022/03/05 03:32:28;;;;;;;28.02;11.95;;;;;;;-1.05;58.64;99412.91;5172842;28;20073;-68
2022/03/05 03:35:18;;;;;;;27.50;12.38;;;;;;;-1.19;59.75;99390.88;5175495;28;20057;-68
2022/03/05 03:38:08;;;;;;;29.80;12.00;;;;;;;-1.07;59.48;99388.66;5174305;28;20483;-68
2022/03/05 03:40:58;;;;;;;29.50;12.50;;;;;;;-1.33;60.06;99393.13;5171664;28;20038;-67
2022/03/05 03:43:48;;;;;;;27.38;12.27;;;;;;;-1.33;59.07;99397.50;5170062;28;20553;-69
2022/03/05 03:46:38;;;;;;;26.25;11.88;;;;;;;-1.45;58.67;99384.06;5179355;28;20053;-69
2022/03/05 03:49:28;;;;;;;26.55;11.85;;;;;;;-1.32;59.56;99399.22;5171478;28;20172;-68
2022/03/05 03:52:19;;;;;;;30.50;11.93;;;;;;;-1.32;59.88;99399.22;5164884;28;20057;-69
2022/03/05 03:55:13;;;;;;;29.42;12.32;;;;;;;-1.42;58.37;99398.72;5173950;28;20071;-67
2022/03/05 03:58:04;;;;;;;32.65;13.23;;;;;;;-1.50;59.78;99392.94;5178314;28;20212;-67
2022/03/05 04:00:54;;;;;;;31.75;12.02;;;;;;;-1.35;60.39;99404.53;5176255;28;20568;-68
2022/03/05 04:03:44;;;;;;;32.20;11.75;;;;;;;-1.38;59.76;99397.69;5179326;28;20108;-68
2022/03/05 04:09:45;;;;;;;29.13;12.10;;;;;;;-1.73;60.67;99391.22;5179650;28;20593;-73
2022/03/05 04:12:35;;;;;;;26.17;11.07;;;;;;;-1.70;59.03;99398.91;5182338;28;20208;-75
2022/03/05 04:15:27;;;;;;;25.27;11.73;;;;;;;-1.66;58.03;99416.06;5184184;28;20064;-73
2022/03/05 04:18:17;;;;;;;30.17;11.98;;;;;;;-1.70;58.02;99411.91;5161384;28;20053;-74
2022/03/05 04:21:08;;;;;;;29.73;12.60;;;;;;;-1.68;58.13;99416.16;5165426;28;20053;-74
2022/03/05 04:23:58;;;;;;;28.42;12.90;;;;;;;-1.73;59.89;99423.25;5157382;28;20519;-74
2022/03/05 04:26:48;;;;;;;31.30;12.57;;;;;;;-1.73;60.54;99422.41;5161496;28;20070;-74
2022/03/05 04:29:40;;;;;;;28.45;11.70;;;;;;;-1.71;60.77;99420.63;5160761;28;20057;-73
2022/03/05 04:32:30;;;;;;;30.58;13.45;;;;;;;-1.67;60.18;99398.78;5156023;28;20165;-73
2022/03/05 04:35:20;;;;;;;29.88;13.05;;;;;;;-1.42;60.28;99420.38;5158885;28;20129;-73
2022/03/05 04:38:11;;;;;;;37.65;13.43;;;;;;;-1.33;60.23;99415.72;5158692;28;20050;-72
2022/03/05 04:41:01;;;;;;;36.58;12.85;;;;;;;-1.42;60.80;99422.97;5159693;28;20096;-72
2022/03/05 04:43:52;;;;;;;39.13;13.20;;;;;;;-1.56;60.44;99417.41;5160248;28;20053;-72
2022/03/05 04:46:42;;;;;;;30.83;13.07;;;;;;;-1.53;60.31;99434.66;5159199;28;20596;-73
2022/03/05 04:49:36;;;;;;;30.42;12.05;;;;;;;-1.61;60.36;99415.91;5146217;28;20061;-72
2022/03/05 04:52:26;;;;;;;35.33;13.23;;;;;;;-1.43;59.59;99415.22;5157000;28;20647;-74
2022/03/05 04:55:16;;;;;;;35.92;13.38;;;;;;;-1.71;60.65;99411.06;5157668;28;20153;-72
2022/03/05 04:58:06;;;;;;;35.67;13.45;;;;;;;-1.55;60.72;99429.53;5158182;28;20050;-72
2022/03/05 05:00:57;;;;;;;29.90;13.00;;;;;;;-1.61;60.86;99419.38;5158970;28;20049;-72
2022/03/05 05:03:48;;;;;;;28.77;12.20;;;;;;;-1.64;60.23;99436.84;5172613;28;20054;-74
2022/03/05 05:06:38;;;;;;;31.70;12.32;;;;;;;-1.76;60.86;99440.72;5159367;28;20046;-72
2022/03/05 05:09:28;;;;;;;33.65;13.13;;;;;;;-1.90;60.57;99429.06;5162231;28;20058;-74
2022/03/05 05:12:18;;;;;;;32.78;13.65;;;;;;;-1.58;60.37;99439.22;5154699;28;20042;-72
2022/03/05 05:15:08;;;;;;;30.92;12.98;;;;;;;-1.81;60.64;99424.44;5164363;28;20562;-73
2022/03/05 05:18:00;;;;;;;28.73;12.80;;;;;;;-1.96;60.41;99439.69;5162348;28;20160;-73
2022/03/05 05:20:50;;;;;;;30.83;13.00;;;;;;;-2.01;60.39;99438.16;5161866;28;20150;-74
2022/03/05 05:23:40;;;;;;;29.15;12.80;;;;;;;-2.15;60.82;99443.84;5164425;28;20104;-73
2022/03/05 05:26:30;;;;;;;31.30;12.15;;;;;;;-2.20;61.24;99446.59;5160870;28;20057;-72
2022/03/05 05:29:21;;;;;;;35.35;13.05;;;;;;;-2.12;61.17;99443.72;5162305;28;20139;-72
2022/03/05 05:32:29;;;;;;;35.63;14.57;;;;;;;-1.95;60.82;99446.59;5163524;28;20054;-72
2022/03/05 05:35:19;;;;;;;35.65;13.88;;;;;;;-2.05;60.22;99446.94;5162660;28;20054;-76
2022/03/05 05:38:09;;;;;;;33.92;13.98;;;;;;;-1.93;60.25;99443.91;5155845;28;20137;-72
2022/03/05 05:40:59;;;;;;;33.33;14.85;;;;;;;-2.06;60.95;99440.91;5159687;28;20073;-73
2022/03/05 05:43:50;;;;;;;32.53;13.80;;;;;;;-2.03;61.11;99459.00;5164559;28;20133;-71
2022/03/05 05:46:41;;;;;;;35.40;14.23;;;;;;;-1.95;60.87;99461.34;5162022;28;20058;-72
2022/03/05 05:49:31;;;;;;;32.75;13.23;;;;;;;-1.96;60.54;99465.66;5180273;28;20065;-74
2022/03/05 05:52:21;;;;;;;28.10;12.07;;;;;;;-2.14;60.71;99468.91;5160830;28;20084;-73
2022/03/05 05:55:11;;;;;;;33.30;13.73;;;;;;;-2.41;61.43;99468.94;5163491;28;20556;-73
2022/03/05 05:58:02;;;;;;;34.22;13.27;;;;;;;-2.54;60.22;99457.28;5161242;28;20092;-74
2022/03/05 06:00:52;;;;;;;31.30;12.98;;;;;;;-2.69;61.77;99457.75;5161886;28;20587;-73
2022/03/05 06:03:44;;;;;;;33.28;13.25;;;;;;;-2.72;61.67;99455.25;5161322;28;20141;-73
2022/03/05 06:06:35;;;;;;;35.35;14.25;;;;;;;-2.54;62.03;99487.59;5158553;28;20057;-74
2022/03/05 06:09:25;;;;;;;32.88;13.13;;;;;;;-2.71;61.63;99469.97;5159899;28;20492;-74
2022/03/05 06:12:16;;;;;;;37.15;14.93;;;;;;;-2.63;62.33;99488.72;5174310;28;20176;-73
2022/03/05 06:15:08;;;;;;;34.25;13.95;;;;;;;-2.49;62.19;99476.13;5165394;28;20054;-74
2022/03/05 06:17:58;;;;;;;35.15;14.70;;;;;;;-2.18;61.44;99485.53;5161386;28;20136;-74
2022/03/05 06:20:49;;;;;;;37.78;14.38;;;;;;;-2.38;62.49;99499.16;5158429;28;20464;-74
2022/03/05 06:23:40;;;;;;;31.45;13.27;;;;;;;-2.34;61.80;99476.53;5145003;28;20109;-73
2022/03/05 06:26:31;;;;;;;33.72;14.10;;;;;;;-2.23;61.81;99495.19;5155587;28;20054;-73
2022/03/05 06:29:22;;;;;;;33.92;14.38;;;;;;;-2.12;61.95;99503.47;5155026;28;20050;-73
2022/03/05 06:32:12;;;;;;;39.15;15.32;;;;;;;-2.33;62.69;99486.03;5147583;28;20057;-74
2022/03/05 06:35:05;;;;;;;33.45;14.52;;;;;;;-2.00;63.32;99491.81;5160155;28;20085;-73
2022/03/05 06:37:55;;;;;;;40.35;15.10;;;;;;;-1.83;61.99;99514.63;5160353;28;20137;-73
2022/03/05 06:40:45;;;;;;;33.30;14.75;;;;;;;-1.81;63.02;99511.06;5160786;28;20160;-72
2022/03/05 06:43:35;;;;;;;31.50;12.98;;;;;;;-1.83;61.21;99514.63;5166897;28;20197;-73
2022/03/05 06:46:26;;;;;;;35.42;13.93;;;;;;;-1.95;62.82;99518.50;5169523;28;20059;-71
2022/03/05 06:49:16;;;;;;;41.17;15.93;;;;;;;-1.90;63.68;99514.00;5163634;28;20515;-72
2022/03/05 06:52:07;;;;;;;38.67;15.07;;;;;;;-1.71;62.36;99517.66;5154528;28;20093;-72
2022/03/05 06:54:57;;;;;;;39.00;15.57;;;;;;;-1.14;60.83;99520.78;5148010;28;20129;-72
2022/03/05 06:57:48;;;;;;;32.88;14.20;;;;;;;-0.29;58.78;99534.81;5162069;28;20057;-72
2022/03/05 07:00:38;;;;;;;42.83;16.27;;;;;;;0.41;57.95;99531.00;5161402;28;20050;-73
2022/03/05 07:03:29;;;;;;;45.38;16.85;;;;;;;0.94;56.09;99527.75;5160395;28;20058;-72
2022/03/05 07:06:19;;;;;;;37.45;15.55;;;;;;;1.33;54.07;99536.44;5161349;28;20116;-73
2022/03/05 07:09:10;;;;;;;33.58;14.88;;;;;;;1.57;54.27;99539.63;5158956;28;20126;-74
2022/03/05 07:12:00;;;;;;;37.08;16.27;;;;;;;1.90;54.31;99531.06;5160775;28;20049;-74
2022/03/05 07:14:51;;;;;;;142.73;39.35;;;;;;;1.85;54.19;99540.00;5162728;28;20482;-74
2022/03/05 07:17:51;;;;;;;98.03;30.33;;;;;;;1.96;54.01;99534.22;5157465;28;20108;-74
2022/03/05 07:20:42;;;;;;;39.53;16.98;;;;;;;2.18;54.54;99536.59;5150966;28;20062;-74
2022/03/05 07:23:32;;;;;;;52.67;19.13;;;;;;;2.14;53.77;99532.44;5157013;28;20682;-74
2022/03/05 07:26:22;;;;;;;35.25;15.25;;;;;;;2.77;52.24;99519.53;5155193;28;20165;-74
2022/03/05 07:29:13;;;;;;;39.33;15.27;;;;;;;3.30;51.10;99517.56;5161768;28;20422;-75
2022/03/05 07:32:04;;;;;;;33.80;15.07;;;;;;;3.22;50.34;99510.13;5158170;28;20521;-76
2022/03/05 07:34:54;;;;;;;46.05;17.95;;;;;;;3.55;50.60;99527.53;5160371;28;20488;-75
2022/03/05 07:37:44;;;;;;;57.55;21.88;;;;;;;3.86;49.83;99525.78;5160739;28;20050;-73
2022/03/05 07:40:40;;;;;;;57.17;21.15;;;;;;;4.28;48.68;99505.84;5157409;28;20188;-72
2022/03/05 07:43:30;;;;;;;46.28;18.33;;;;;;;3.43;50.93;99517.72;5154439;28;20426;-71
2022/03/05 07:46:20;;;;;;;34.55;14.68;;;;;;;3.24;53.29;99526.59;5157740;28;20140;-71
2022/03/05 07:49:10;;;;;;;32.53;15.48;;;;;;;3.06;52.87;99525.00;5167696;28;20417;-71
2022/03/05 07:52:00;;;;;;;39.67;16.33;;;;;;;4.13;51.00;99518.91;5157105;28;20503;-73
2022/03/05 07:54:52;;;;;;;31.45;14.32;;;;;;;4.15;50.42;99517.06;5160153;28;20046;-69
2022/03/05 07:57:43;;;;;;;35.75;15.63;;;;;;;3.56;50.94;99512.66;5156516;28;20141;-70
2022/03/05 08:00:34;;;;;;;31.50;15.32;;;;;;;3.69;51.40;99519.72;5158076;28;20088;-73
2022/03/05 08:03:24;;;;;;;32.95;16.75;;;;;;;4.07;51.21;99514.03;5154324;28;20054;-71
2022/03/05 08:06:15;;;;;;;32.90;15.65;;;;;;;4.76;49.90;99516.94;5160975;28;20058;-73
2022/03/05 08:09:05;;;;;;;37.95;16.02;;;;;;;5.48;47.52;99533.44;5157605;28;20417;-71
2022/03/05 08:11:55;;;;;;;37.10;16.52;;;;;;;5.33;48.61;99527.34;5156528;28;20451;-71
2022/03/05 08:14:45;;;;;;;37.20;17.55;;;;;;;5.87;47.91;99537.91;5173358;28;20573;-74
2022/03/05 08:17:36;;;;;;;33.92;16.05;;;;;;;6.47;46.90;99532.13;5159617;28;20714;-74
2022/03/05 08:20:28;;;;;;;35.67;15.40;;;;;;;6.87;45.58;99539.09;5159177;28;20073;-73
2022/03/05 08:23:18;;;;;;;32.78;15.88;;;;;;;6.37;45.58;99520.56;5160384;28;20050;-72
2022/03/05 08:26:13;;;;;;;38.97;15.52;;;;;;;6.36;45.32;99529.41;5159310;28;20074;-72
2022/03/05 08:29:03;;;;;;;33.80;15.35;;;;;;;7.71;42.20;99531.25;5158320;28;20543;-72
2022/03/05 08:31:53;;;;;;;32.85;16.38;;;;;;;5.34;46.94;99535.16;5156991;28;20057;-73
2022/03/05 08:34:43;;;;;;;30.50;16.02;;;;;;;6.20;46.23;99523.47;5155243;28;20061;-73
2022/03/05 08:37:35;;;;;;;35.80;15.90;;;;;;;7.35;43.60;99524.25;5151465;28;20156;-73
2022/03/05 08:40:25;;;;;;;33.45;16.52;;;;;;;7.63;42.69;99536.25;5162932;28;20532;-72
2022/03/05 08:43:15;;;;;;;36.65;15.90;;;;;;;8.44;41.60;99527.59;5155535;28;20149;-72
2022/03/05 08:46:07;;;;;;;32.03;15.95;;;;;;;8.85;40.86;99530.66;5163710;28;20217;-72
2022/03/05 08:48:57;;;;;;;29.05;15.68;;;;;;;9.40;39.54;99527.13;5160261;28;20046;-71
2022/03/05 08:51:47;;;;;;;31.85;15.55;;;;;;;9.23;39.31;99529.41;5161582;28;20487;-69
2022/03/05 08:54:37;;;;;;;28.92;15.10;;;;;;;9.96;38.27;99526.09;5163663;28;20420;-71
2022/03/05 08:57:27;;;;;;;30.88;16.13;;;;;;;10.46;38.11;99518.41;5173088;28;20060;-72
2022/03/05 09:00:17;;;;;;;27.50;15.75;;;;;;;10.48;37.71;99515.63;5166972;28;20054;-71
2022/03/05 09:03:07;;;;;;;28.27;13.90;;;;;;;11.11;35.12;99515.50;5165519;28;20054;-74
2022/03/05 09:05:58;;;;;;;31.25;15.60;;;;;;;10.84;37.04;99514.28;5152883;28;20066;-72
2022/03/05 09:08:48;;;;;;;27.90;14.88;;;;;;;9.17;37.55;99497.22;5164634;28;20072;-71
2022/03/05 09:11:39;;;;;;;28.67;14.75;;;;;;;9.78;37.95;99515.22;5161750;28;20508;-72
2022/03/05 09:14:29;;;;;;;27.08;14.20;;;;;;;10.52;36.65;99501.97;5148884;28;20086;-71
2022/03/05 09:17:19;;;;;;;28.15;14.82;;;;;;;10.67;35.87;99505.13;5156736;28;20073;-72
2022/03/05 09:20:11;;;;;;;27.85;15.30;;;;;;;8.87;37.57;99497.84;5154295;28;20065;-70
2022/03/05 09:23:01;;;;;;;28.90;15.00;;;;;;;9.94;38.33;99492.78;5154981;28;20061;-71
2022/03/05 09:25:52;;;;;;;28.45;15.93;;;;;;;10.47;36.28;99490.94;5157632;28;20053;-70
2022/03/05 09:28:42;;;;;;;26.95;14.40;;;;;;;10.70;34.99;99496.91;5157315;28;20077;-70
2022/03/05 09:31:32;;;;;;;26.50;14.05;;;;;;;11.35;35.59;99481.47;5158752;28;20189;-69
2022/03/05 09:34:23;;;;;;;29.50;14.10;;;;;;;11.55;33.57;99484.16;5165740;28;20084;-69
2022/03/05 09:37:13;;;;;;;24.88;13.07;;;;;;;11.37;33.94;99490.16;5161658;28;20412;-70
2022/03/05 09:40:04;;;;;;;25.58;13.68;;;;;;;11.13;34.14;99487.03;5164400;28;20116;-72
2022/03/05 09:42:55;;;;;;;25.45;13.82;;;;;;;11.20;34.46;99489.00;5157411;28;20415;-71
2022/03/05 09:45:47;;;;;;;24.92;13.32;;;;;;;11.19;33.59;99494.41;5157666;28;20059;-69
2022/03/05 09:48:39;;;;;;;24.90;12.73;;;;;;;10.55;35.25;99488.44;5159291;28;20054;-70
2022/03/05 09:51:29;;;;;;;23.40;12.73;;;;;;;10.94;33.70;99477.19;5161015;28;20521;-70
2022/03/05 09:54:19;;;;;;;24.83;14.02;;;;;;;10.47;35.72;99471.53;5160001;28;20125;-68
2022/03/05 09:57:12;;;;;;;27.52;13.88;;;;;;;11.51;33.67;99491.56;5159060;28;20043;-69
2022/03/05 10:00:05;;;;;;;23.55;12.18;;;;;;;11.75;33.38;99492.03;5165176;28;20047;-70
2022/03/05 10:02:55;;;;;;;21.35;11.90;;;;;;;11.05;31.65;99493.00;5157988;28;20042;-72
2022/03/05 10:05:46;;;;;;;20.95;11.68;;;;;;;12.02;31.87;99482.53;5153651;28;20681;-69
2022/03/05 10:08:37;;;;;;;20.33;10.70;;;;;;;12.01;32.22;99486.16;5160137;28;20054;-70
2022/03/05 10:11:39;;;;;;;19.85;11.93;;;;;;;11.92;32.21;99481.69;5156622;28;20113;-74
2022/03/05 10:14:28;;;;;;;20.15;12.05;;;;;;;11.56;33.02;99484.03;5160072;28;20058;-70
2022/03/05 10:17:19;;;;;;;17.23;10.55;;;;;;;10.60;32.31;99466.84;5157119;28;20125;-71
2022/03/05 10:20:10;;;;;;;21.67;11.27;;;;;;;11.02;32.04;99472.84;5160308;28;20057;-72
2022/03/05 10:23:04;;;;;;;17.70;9.73;;;;;;;11.21;32.01;99481.88;5153187;28;20562;-70
2022/03/05 10:25:55;;;;;;;15.20;9.23;;;;;;;10.33;32.69;99473.56;5158006;28;20057;-72
2022/03/05 10:28:45;;;;;;;16.92;9.65;;;;;;;10.31;33.99;99485.25;5158375;28;20118;-69
2022/03/05 10:31:54;;;;;;;18.77;9.68;;;;;;;10.59;32.97;99481.06;5157868;28;20073;-70
2022/03/05 10:34:45;;;;;;;15.40;8.52;;;;;;;9.07;32.87;99476.88;5158461;28;20062;-70
2022/03/05 10:37:36;;;;;;;14.77;8.73;;;;;;;8.67;34.90;99475.56;5158018;28;20057;-74
2022/03/05 10:40:30;;;;;;;15.10;8.73;;;;;;;8.47;33.58;99466.56;5158668;28;20050;-72
2022/03/05 10:43:21;;;;;;;14.80;8.38;;;;;;;7.41;35.59;99470.16;5159645;28;20185;-71
2022/03/05 10:46:11;;;;;;;14.00;8.13;;;;;;;8.97;32.26;99462.72;5157218;28;20054;-71
2022/03/05 10:49:16;;;;;;;14.80;8.38;;;;;;;9.13;33.88;99460.53;5155272;28;20100;-72
2022/03/05 10:52:09;;;;;;;17.10;9.70;;;;;;;10.03;33.02;99455.75;5155352;28;20046;-69
2022/03/05 10:55:14;;;;;;;17.20;9.68;;;;;;;9.44;33.53;99464.19;5164608;28;20045;-73
2022/03/05 10:58:16;;;;;;;15.32;8.73;;;;;;;9.76;32.55;99466.81;5148470;28;20248;-71
2022/03/05 11:01:07;;;;;;;16.45;8.85;;;;;;;9.59;33.32;99454.13;5200482;23;20128;-72
2022/03/05 11:03:58;;;;;;;15.43;9.13;;;;;;;9.47;33.49;99460.44;5198539;28;20415;-71
2022/03/05 11:06:48;;;;;;;15.65;9.10;;;;;;;9.30;32.26;99465.28;5199441;28;20463;-72
2022/03/05 11:09:42;;;;;;;17.10;8.80;;;;;;;8.96;34.02;99463.69;5205355;28;20068;-71
2022/03/05 11:12:32;;;;;;;13.87;7.70;;;;;;;9.08;32.57;99468.00;5169135;28;20415;-71
2022/03/05 11:15:24;;;;;;;16.08;8.95;;;;;;;8.57;32.99;99450.81;5179058;28;20144;-71
2022/03/05 11:18:15;;;;;;;13.85;8.02;;;;;;;7.48;36.22;99453.81;5192494;28;20569;-69
2022/03/05 11:21:07;;;;;;;16.95;8.85;;;;;;;7.61;34.91;99460.78;5177462;28;20115;-72
2022/03/05 11:23:58;;;;;;;17.50;8.80;;;;;;;8.99;34.06;99453.69;5178220;28;20059;-70
2022/03/05 11:26:55;;;;;;;15.45;9.45;;;;;;;8.19;34.60;99449.31;5182507;28;20491;-69
2022/03/05 11:30:05;;;;;;;16.08;9.10;;;;;;;7.47;36.09;99444.19;5181393;28;20045;-70
2022/03/05 11:32:55;;;;;;;17.35;9.35;;;;;;;8.77;34.24;99438.69;5181718;28;20138;-70
2022/03/05 11:35:46;;;;;;;17.55;9.30;;;;;;;8.55;33.75;99426.34;5195622;28;20234;-72
2022/03/05 11:38:39;;;;;;;15.52;8.50;;;;;;;8.07;35.28;99436.22;5182346;28;20542;-70
2022/03/05 11:41:29;;;;;;;16.00;9.02;;;;;;;8.31;34.79;99441.41;5182261;28;20060;-70
2022/03/05 11:44:22;;;;;;;15.43;8.57;;;;;;;9.00;33.36;99441.31;5181503;28;20056;-70
2022/03/05 11:47:25;;;;;;;16.77;9.07;;;;;;;8.59;32.06;99437.50;5168180;28;20180;-73
2022/03/05 11:50:17;;;;;;;20.85;9.10;;;;;;;9.09;33.87;99436.13;5167616;28;20479;-70
2022/03/05 11:53:08;;;;;;;14.63;7.63;;;;;;;9.29;33.42;99431.88;5168007;28;20143;-70
2022/03/05 11:56:25;;;;;;;13.07;7.82;;;;;;;8.55;33.38;99425.50;5181482;28;20419;-71
2022/03/05 11:59:30;;;;;;;13.90;7.45;;;;;;;8.20;33.75;99416.66;5182920;28;20053;-71
2022/03/05 12:02:46;;;;;;;12.13;6.65;;;;;;;8.24;33.03;99399.63;5181913;28;20492;-70
2022/03/05 12:05:41;;;;;;;11.68;7.28;;;;;;;8.70;32.81;99409.25;5181663;28;20050;-70
2022/03/05 12:08:31;;;;;;;11.48;6.88;;;;;;;8.86;31.97;99408.88;5172367;28;20526;-67
2022/03/05 12:11:22;;;;;;;13.48;7.47;;;;;;;8.51;33.66;99393.19;5169463;28;20078;-68
2022/03/05 12:14:12;;;;;;;12.07;6.90;;;;;;;8.86;31.73;99415.97;5171400;28;20056;-68
2022/03/05 12:17:07;;;;;;;16.35;9.02;;;;;;;7.53;34.37;99390.97;5162177;28;20084;-67
2022/03/05 12:19:58;;;;;;;13.02;7.47;;;;;;;8.45;32.65;99396.31;5163838;28;20054;-67
2022/03/05 12:22:51;;;;;;;11.98;6.90;;;;;;;7.91;33.13;99402.22;5161735;28;20137;-68
2022/03/05 12:25:44;;;;;;;12.85;7.15;;;;;;;8.06;31.03;99402.84;5163439;28;20200;-68
2022/03/05 12:28:42;;;;;;;14.20;7.57;;;;;;;8.82;33.44;99398.69;5176138;28;20050;-68
2022/03/05 12:31:33;;;;;;;12.82;6.85;;;;;;;8.64;31.05;99388.63;5174571;28;20248;-68
2022/03/05 12:34:26;;;;;;;14.20;7.55;;;;;;;8.75;33.41;99386.91;5180927;28;20627;-69
2022/03/05 12:37:17;;;;;;;10.95;6.13;;;;;;;8.20;32.46;99386.78;5180957;28;20060;-68
2022/03/05 12:40:08;;;;;;;13.77;6.82;;;;;;;8.70;32.27;99396.03;5181339;28;20139;-72
2022/03/05 12:42:59;;;;;;;11.57;6.45;;;;;;;8.75;31.60;99392.19;5182236;28;20060;-71
2022/03/05 12:45:50;;;;;;;11.07;6.72;;;;;;;9.08;30.34;99373.63;5180701;28;20123;-68
2022/03/05 12:48:40;;;;;;;10.82;6.70;;;;;;;8.79;29.37;99381.25;5180498;28;20046;-69
2022/03/05 12:51:31;;;;;;;11.10;6.90;;;;;;;8.24;31.62;99345.94;5177134;28;20108;-69
2022/03/05 12:54:23;;;;;;;12.98;6.57;;;;;;;8.58;31.52;99375.88;5180963;28;20050;-67
2022/03/05 12:57:13;;;;;;;10.93;6.25;;;;;;;8.00;30.62;99365.38;5178495;28;20109;-70
2022/03/05 13:00:05;;;;;;;12.32;6.63;;;;;;;8.32;32.02;99367.34;5173399;28;20125;-70
2022/03/05 13:02:55;;;;;;;12.88;7.00;;;;;;;8.92;30.59;99370.53;5194745;28;20496;-70
2022/03/05 13:05:47;;;;;;;10.85;6.40;;;;;;;8.12;31.60;99358.31;5180209;28;20607;-69
2022/03/05 13:08:43;;;;;;;11.38;6.47;;;;;;;8.71;30.72;99362.53;5178419;28;20069;-70
2022/03/05 13:11:33;;;;;;;13.93;7.78;;;;;;;8.68;32.66;99354.84;5164789;28;20124;-70
2022/03/05 13:14:23;;;;;;;22.10;10.75;;;;;;;7.95;33.61;99343.78;5174018;28;20066;-69
2022/03/05 13:17:14;;;;;;;16.17;8.93;;;;;;;9.07;32.99;99334.03;5178667;28;20042;-69
2022/03/05 13:20:05;;;;;;;16.80;9.02;;;;;;;9.39;32.20;99357.84;5181498;28;20060;-69